createdAt,value
2018-03-31T00:00:13.132Z,8.54
2018-03-31T00:01:13.097Z,8.61
2018-03-31T00:02:13.084Z,8.58
2018-03-31T00:03:13.049Z,8.52
2018-03-31T00:04:13.022Z,8.57
2018-03-31T00:05:13.018Z,8.64
2018-03-31T00:06:12.971Z,8.67
2018-03-31T00:07:12.946Z,8.67
2018-03-31T00:08:12.917Z,8.72
2018-03-31T00:09:12.891Z,8.68
2018-03-31T00:10:12.877Z,8.69
2018-03-31T00:11:12.853Z,8.69
2018-03-31T00:12:12.855Z,8.71
2018-03-31T00:13:12.801Z,8.79
2018-03-31T00:14:12.772Z,8.79
2018-03-31T00:15:12.775Z,8.77
2018-03-31T00:16:12.714Z,8.86
2018-03-31T00:17:12.676Z,8.87
2018-03-31T00:18:12.690Z,8.83
2018-03-31T00:19:12.631Z,8.83
2018-03-31T00:20:12.616Z,8.83
2018-03-31T00:21:12.583Z,8.87
2018-03-31T00:22:12.557Z,8.90
2018-03-31T00:23:12.560Z,8.95
2018-03-31T00:24:12.531Z,8.85
2018-03-31T00:25:12.470Z,8.87
2018-03-31T00:26:12.455Z,8.94
2018-03-31T00:27:12.451Z,8.86
2018-03-31T00:28:12.389Z,8.94
2018-03-31T00:29:12.400Z,8.87
2018-03-31T00:30:12.373Z,8.87
2018-03-31T00:31:12.310Z,8.92
2018-03-31T00:32:12.310Z,8.89
2018-03-31T00:33:12.288Z,8.87
2018-03-31T00:34:12.231Z,8.87
2018-03-31T00:35:12.232Z,8.86
2018-03-31T00:36:12.186Z,8.87
2018-03-31T00:37:12.208Z,8.87
2018-03-31T00:38:12.149Z,8.92
2018-03-31T00:39:12.126Z,8.87
2018-03-31T00:40:12.135Z,8.89
2018-03-31T00:41:12.065Z,8.79
2018-03-31T00:42:12.045Z,8.69
2018-03-31T00:43:12.046Z,8.69
2018-03-31T00:44:11.988Z,8.69
2018-03-31T00:45:11.999Z,8.65
2018-03-31T00:46:11.968Z,8.76
2018-03-31T00:47:11.907Z,8.80
2018-03-31T00:48:11.882Z,8.77
2018-03-31T00:49:11.857Z,8.85
2018-03-31T00:50:11.822Z,8.80
2018-03-31T00:51:11.800Z,8.71
2018-03-31T00:52:11.820Z,8.69
2018-03-31T00:53:11.741Z,8.77
2018-03-31T00:54:11.721Z,8.76
2018-03-31T00:55:11.708Z,8.71
2018-03-31T00:56:11.662Z,8.64
2018-03-31T00:57:11.664Z,8.67
2018-03-31T00:58:11.605Z,8.58
2018-03-31T00:59:11.576Z,8.60
2018-03-31T01:00:11.579Z,8.54
2018-03-31T01:01:11.528Z,8.53
2018-03-31T01:02:11.492Z,8.64
2018-03-31T01:03:11.477Z,8.61
2018-03-31T01:04:11.479Z,8.60
2018-03-31T01:05:11.423Z,8.65
2018-03-31T01:06:11.406Z,8.68
2018-03-31T01:07:11.400Z,8.62
2018-03-31T01:08:11.336Z,8.54
2018-03-31T01:09:11.336Z,8.54
2018-03-31T01:10:11.313Z,8.54
2018-03-31T01:11:11.261Z,8.58
2018-03-31T01:12:11.252Z,8.44
2018-03-31T01:13:11.240Z,8.47
2018-03-31T01:14:11.228Z,8.43
2018-03-31T01:15:11.173Z,8.42
2018-03-31T01:16:11.145Z,8.36
2018-03-31T01:17:11.132Z,8.35
2018-03-31T01:18:11.099Z,8.34
2018-03-31T01:19:11.063Z,8.40
2018-03-31T01:20:11.097Z,8.39
2018-03-31T01:21:11.010Z,8.39
2018-03-31T01:22:10.984Z,8.43
2018-03-31T01:23:10.985Z,8.40
2018-03-31T01:24:10.927Z,8.42
2018-03-31T01:25:10.904Z,8.39
2018-03-31T01:26:10.918Z,8.39
2018-03-31T01:27:10.843Z,8.40
2018-03-31T01:28:10.803Z,8.32
2018-03-31T01:29:10.828Z,8.26
2018-03-31T01:30:10.763Z,8.28
2018-03-31T01:31:10.737Z,8.34
2018-03-31T01:32:10.737Z,8.39
2018-03-31T01:33:10.682Z,8.39
2018-03-31T01:34:10.696Z,8.35
2018-03-31T01:35:10.656Z,8.28
2018-03-31T01:36:18.584Z,8.28
2018-03-31T01:38:03.548Z,8.28
2018-03-31T01:39:03.453Z,8.25
2018-03-31T01:40:03.464Z,8.17
2018-03-31T01:41:03.427Z,8.22
2018-03-31T01:42:03.374Z,8.22
2018-03-31T01:43:03.377Z,8.16
2018-03-31T01:44:03.347Z,8.14
2018-03-31T01:45:03.310Z,8.14
2018-03-31T01:46:03.293Z,8.14
2018-03-31T01:47:03.267Z,8.07
2018-03-31T01:48:03.220Z,8.17
2018-03-31T01:49:03.193Z,8.14
2018-03-31T01:50:03.207Z,8.17
2018-03-31T01:51:03.139Z,8.13
2018-03-31T01:52:03.109Z,8.22
2018-03-31T01:53:03.080Z,8.13
2018-03-31T01:54:03.061Z,8.17
2018-03-31T01:55:03.049Z,8.29
2018-03-31T01:56:03.021Z,8.21
2018-03-31T01:57:05.498Z,8.28
2018-03-31T01:58:02.965Z,8.24
2018-03-31T01:59:02.945Z,8.21
2018-03-31T02:00:02.922Z,8.19
2018-03-31T02:01:02.883Z,8.10
2018-03-31T02:02:02.859Z,8.07
2018-03-31T02:03:02.862Z,8.06
2018-03-31T02:04:02.805Z,7.99
2018-03-31T02:05:02.801Z,7.96
2018-03-31T02:06:02.756Z,7.96
2018-03-31T02:07:02.721Z,7.95
2018-03-31T02:08:02.682Z,7.88
2018-03-31T02:09:02.716Z,7.80
2018-03-31T02:10:02.640Z,7.80
2018-03-31T02:11:02.623Z,7.88
2018-03-31T02:12:02.629Z,7.71
2018-03-31T02:13:02.561Z,7.82
2018-03-31T02:14:02.537Z,7.80
2018-03-31T02:15:02.543Z,7.71
2018-03-31T02:16:02.481Z,7.73
2018-03-31T02:17:02.454Z,7.73
2018-03-31T02:18:02.457Z,7.58
2018-03-31T02:19:02.399Z,7.70
2018-03-31T02:20:02.374Z,7.63
2018-03-31T02:21:02.380Z,7.71
2018-03-31T02:22:02.317Z,7.70
2018-03-31T02:23:02.274Z,7.64
2018-03-31T02:24:02.295Z,7.70
2018-03-31T02:25:02.238Z,7.58
2018-03-31T02:26:02.236Z,7.61
2018-03-31T02:27:02.185Z,7.55
2018-03-31T02:28:02.154Z,7.74
2018-03-31T02:29:02.126Z,7.75
2018-03-31T02:30:02.132Z,7.77
2018-03-31T02:31:02.075Z,7.71
2018-03-31T02:32:02.043Z,7.74
2018-03-31T02:33:02.023Z,7.73
2018-03-31T02:34:01.989Z,7.75
2018-03-31T02:35:01.971Z,7.75
2018-03-31T02:36:01.977Z,7.70
2018-03-31T02:37:01.913Z,7.64
2018-03-31T02:38:01.864Z,7.78
2018-03-31T02:39:01.882Z,7.75
2018-03-31T02:40:01.819Z,7.78
2018-03-31T02:41:01.802Z,7.83
2018-03-31T02:42:01.768Z,7.93
2018-03-31T02:43:01.741Z,7.89
2018-03-31T02:44:01.720Z,7.92
2018-03-31T02:45:01.712Z,7.98
2018-03-31T02:46:01.656Z,7.99
2018-03-31T02:47:01.644Z,7.99
2018-03-31T02:48:01.605Z,8.09
2018-03-31T02:49:01.577Z,7.98
2018-03-31T02:50:01.558Z,8.06
2018-03-31T02:51:01.526Z,8.01
2018-03-31T02:52:01.494Z,7.99
2018-03-31T02:53:01.483Z,7.95
2018-03-31T02:54:01.447Z,7.83
2018-03-31T02:55:01.407Z,7.78
2018-03-31T02:56:01.409Z,7.78
2018-03-31T02:57:01.363Z,7.80
2018-03-31T02:58:01.327Z,7.78
2018-03-31T02:59:01.296Z,7.80
2018-03-31T03:00:01.281Z,7.89
2018-03-31T03:01:01.243Z,7.85
2018-03-31T03:02:01.252Z,7.89
2018-03-31T03:03:01.199Z,7.93
2018-03-31T03:04:01.173Z,8.06
2018-03-31T03:05:01.179Z,7.96
2018-03-31T03:06:01.118Z,7.98
2018-03-31T03:07:01.085Z,8.03
2018-03-31T03:08:01.091Z,7.99
2018-03-31T03:09:01.040Z,8.09
2018-03-31T03:10:01.009Z,8.03
2018-03-31T03:11:01.012Z,8.03
2018-03-31T03:12:00.981Z,8.03
2018-03-31T03:13:00.924Z,7.98
2018-03-31T03:14:00.927Z,7.98
2018-03-31T03:15:00.915Z,7.96
2018-03-31T03:16:00.841Z,7.93
2018-03-31T03:17:00.846Z,7.91
2018-03-31T03:18:00.793Z,7.86
2018-03-31T03:19:00.763Z,7.86
2018-03-31T03:20:00.761Z,7.85
2018-03-31T03:21:00.712Z,7.88
2018-03-31T03:22:00.714Z,7.85
2018-03-31T03:23:00.682Z,7.77
2018-03-31T03:24:00.630Z,7.86
2018-03-31T03:25:00.605Z,7.83
2018-03-31T03:26:00.600Z,7.78
2018-03-31T03:27:00.607Z,7.83
2018-03-31T03:28:00.552Z,7.82
2018-03-31T03:29:00.523Z,7.83
2018-03-31T03:30:00.494Z,7.88
2018-03-31T03:31:00.509Z,7.89
2018-03-31T03:32:00.440Z,7.85
2018-03-31T03:33:00.414Z,7.86
2018-03-31T03:34:00.385Z,7.95
2018-03-31T03:35:00.355Z,7.85
2018-03-31T03:36:00.323Z,7.91
2018-03-31T03:37:00.306Z,7.98
2018-03-31T03:38:00.277Z,7.95
2018-03-31T03:39:00.218Z,8.03
2018-03-31T03:40:00.249Z,8.03
2018-03-31T03:41:00.187Z,8.03
2018-03-31T03:42:00.138Z,8.06
2018-03-31T03:43:00.168Z,8.10
2018-03-31T03:44:00.108Z,8.09
2018-03-31T03:45:00.084Z,8.06
2018-03-31T03:46:00.089Z,7.93
2018-03-31T03:47:00.026Z,8.04
2018-03-31T03:48:00.012Z,8.06
2018-03-31T03:48:59.998Z,8.07
2018-03-31T03:49:59.942Z,8.03
2018-03-31T03:50:59.903Z,8.13
2018-03-31T03:51:59.873Z,8.07
2018-03-31T03:52:59.851Z,8.11
2018-03-31T03:53:59.821Z,8.14
2018-03-31T03:54:59.787Z,8.19
2018-03-31T03:55:59.760Z,8.14
2018-03-31T03:56:59.735Z,8.13
2018-03-31T03:57:59.709Z,8.19
2018-03-31T03:58:59.688Z,8.13
2018-03-31T03:59:59.656Z,8.14
2018-03-31T04:00:59.633Z,8.17
2018-03-31T04:01:59.608Z,8.22
2018-03-31T04:02:59.571Z,8.19
2018-03-31T04:03:59.552Z,8.17
2018-03-31T04:04:59.520Z,8.16
2018-03-31T04:05:59.497Z,8.24
2018-03-31T04:06:59.494Z,8.17
2018-03-31T04:07:59.444Z,8.13
2018-03-31T04:08:59.409Z,8.19
2018-03-31T04:09:59.398Z,8.19
2018-03-31T04:10:59.368Z,8.19
2018-03-31T04:11:59.337Z,8.10
2018-03-31T04:12:59.309Z,8.13
2018-03-31T04:13:59.283Z,8.09
2018-03-31T04:14:59.249Z,8.10
2018-03-31T04:15:59.273Z,8.06
2018-03-31T04:16:59.210Z,8.06
2018-03-31T04:17:59.218Z,8.01
2018-03-31T04:18:59.168Z,8.01
2018-03-31T04:19:59.131Z,7.95
2018-03-31T04:20:59.112Z,8.01
2018-03-31T04:21:59.098Z,7.93
2018-03-31T04:22:59.047Z,7.91
2018-03-31T04:23:59.092Z,7.86
2018-03-31T04:24:59.000Z,7.80
2018-03-31T04:25:58.965Z,7.80
2018-03-31T04:26:58.971Z,7.80
2018-03-31T04:27:58.947Z,7.78
2018-03-31T04:28:58.884Z,7.83
2018-03-31T04:29:58.861Z,7.89
2018-03-31T04:30:58.852Z,7.83
2018-03-31T04:31:58.807Z,7.85
2018-03-31T04:32:58.777Z,7.71
2018-03-31T04:33:58.756Z,7.77
2018-03-31T04:34:58.717Z,7.70
2018-03-31T04:35:58.696Z,7.70
2018-03-31T04:36:58.691Z,7.71
2018-03-31T04:37:58.638Z,7.68
2018-03-31T04:38:58.620Z,7.64
2018-03-31T04:39:58.618Z,7.61
2018-03-31T04:40:58.555Z,7.68
2018-03-31T04:41:58.536Z,7.64
2018-03-31T04:42:58.529Z,7.67
2018-03-31T04:43:58.467Z,7.61
2018-03-31T04:44:58.477Z,7.58
2018-03-31T04:45:58.447Z,7.61
2018-03-31T04:46:58.391Z,7.61
2018-03-31T04:47:58.366Z,7.63
2018-03-31T04:48:58.342Z,7.64
2018-03-31T04:49:58.312Z,7.61
2018-03-31T04:50:58.268Z,7.61
2018-03-31T04:51:58.272Z,7.56
2018-03-31T04:52:58.237Z,7.59
2018-03-31T04:53:58.202Z,7.54
2018-03-31T04:54:58.188Z,7.51
2018-03-31T04:55:58.153Z,7.48
2018-03-31T04:56:58.107Z,7.48
2018-03-31T04:57:58.081Z,7.52
2018-03-31T04:58:58.059Z,7.41
2018-03-31T04:59:58.039Z,7.49
2018-03-31T05:00:58.043Z,7.48
2018-03-31T05:01:57.981Z,7.37
2018-03-31T05:02:57.961Z,7.52
2018-03-31T05:03:57.962Z,7.49
2018-03-31T05:04:57.893Z,7.47
2018-03-31T05:05:57.854Z,7.49
2018-03-31T05:06:57.878Z,7.41
2018-03-31T05:07:57.816Z,7.40
2018-03-31T05:08:57.800Z,7.37
2018-03-31T05:09:57.820Z,7.36
2018-03-31T05:10:57.735Z,7.39
2018-03-31T05:11:57.742Z,7.30
2018-03-31T05:12:57.713Z,7.31
2018-03-31T05:13:57.640Z,7.26
2018-03-31T05:14:57.715Z,7.23
2018-03-31T05:15:57.624Z,7.13
2018-03-31T05:16:57.591Z,7.22
2018-03-31T05:17:57.554Z,7.27
2018-03-31T05:18:57.555Z,7.22
2018-03-31T05:19:57.547Z,7.13
2018-03-31T05:20:57.463Z,7.26
2018-03-31T05:21:57.506Z,7.15
2018-03-31T05:22:57.405Z,7.16
2018-03-31T05:23:57.378Z,7.19
2018-03-31T05:24:57.361Z,7.15
2018-03-31T05:25:57.324Z,7.18
2018-03-31T05:26:57.282Z,7.19
2018-03-31T05:27:57.304Z,7.18
2018-03-31T05:28:57.251Z,7.16
2018-03-31T05:29:57.205Z,7.19
2018-03-31T05:30:57.194Z,7.03
2018-03-31T05:31:57.162Z,7.22
2018-03-31T05:32:57.112Z,7.18
2018-03-31T05:33:57.106Z,7.16
2018-03-31T05:34:57.078Z,7.19
2018-03-31T05:35:57.026Z,7.13
2018-03-31T05:36:57.043Z,7.23
2018-03-31T05:37:56.996Z,7.22
2018-03-31T05:38:56.947Z,7.12
2018-03-31T05:39:56.974Z,7.22
2018-03-31T05:40:56.915Z,7.12
2018-03-31T05:41:56.867Z,7.22
2018-03-31T05:42:56.891Z,7.19
2018-03-31T05:43:56.836Z,7.22
2018-03-31T05:44:56.805Z,7.22
2018-03-31T05:45:56.826Z,7.19
2018-03-31T05:46:56.755Z,7.18
2018-03-31T05:47:56.724Z,7.27
2018-03-31T05:48:56.734Z,7.23
2018-03-31T05:49:56.669Z,7.23
2018-03-31T05:50:56.645Z,7.12
2018-03-31T05:51:56.620Z,7.13
2018-03-31T05:52:56.589Z,7.31
2018-03-31T05:53:56.535Z,7.23
2018-03-31T05:54:56.509Z,7.29
2018-03-31T05:55:56.507Z,7.41
2018-03-31T05:56:56.490Z,7.33
2018-03-31T05:57:56.425Z,7.34
2018-03-31T05:58:56.425Z,7.36
2018-03-31T05:59:56.418Z,7.37
2018-03-31T06:00:56.339Z,7.37
2018-03-31T06:01:56.349Z,7.47
2018-03-31T06:02:56.286Z,7.47
2018-03-31T06:03:56.255Z,7.51
2018-03-31T06:04:56.260Z,7.54
2018-03-31T06:05:56.205Z,7.54
2018-03-31T06:06:56.177Z,7.45
2018-03-31T06:07:56.161Z,7.49
2018-03-31T06:08:56.121Z,7.55
2018-03-31T06:09:56.090Z,7.59
2018-03-31T06:10:56.069Z,7.52
2018-03-31T06:11:56.040Z,7.59
2018-03-31T06:12:56.019Z,7.56
2018-03-31T06:13:56.015Z,7.58
2018-03-31T06:14:55.988Z,7.54
2018-03-31T06:15:55.935Z,7.58
2018-03-31T06:16:55.931Z,7.54
2018-03-31T06:17:55.878Z,7.63
2018-03-31T06:18:55.848Z,7.63
2018-03-31T06:19:55.820Z,7.67
2018-03-31T06:20:55.798Z,7.63
2018-03-31T06:21:55.766Z,7.64
2018-03-31T06:22:55.770Z,7.63
2018-03-31T06:23:55.737Z,7.67
2018-03-31T06:24:55.685Z,7.75
2018-03-31T06:25:55.689Z,7.74
2018-03-31T06:26:55.630Z,7.82
2018-03-31T06:27:55.604Z,7.86
2018-03-31T06:28:55.609Z,7.83
2018-03-31T06:29:55.545Z,7.82
2018-03-31T06:30:55.521Z,7.80
2018-03-31T06:31:55.525Z,7.86
2018-03-31T06:32:55.491Z,7.96
2018-03-31T06:33:55.435Z,8.01
2018-03-31T06:34:55.444Z,7.99
2018-03-31T06:35:55.425Z,8.09
2018-03-31T06:36:55.357Z,8.09
2018-03-31T06:37:55.361Z,8.17
2018-03-31T06:38:55.329Z,8.17
2018-03-31T06:39:55.289Z,8.13
2018-03-31T06:40:55.283Z,8.22
2018-03-31T06:41:55.219Z,8.31
2018-03-31T06:42:55.188Z,8.31
2018-03-31T06:43:55.256Z,8.29
2018-03-31T06:44:55.170Z,8.32
2018-03-31T06:45:55.108Z,8.39
2018-03-31T06:46:55.090Z,8.42
2018-03-31T06:47:55.062Z,8.35
2018-03-31T06:48:55.038Z,8.36
2018-03-31T06:49:55.035Z,8.42
2018-03-31T06:50:54.974Z,8.52
2018-03-31T06:51:54.956Z,8.44
2018-03-31T06:52:54.955Z,8.42
2018-03-31T06:53:54.897Z,8.49
2018-03-31T06:54:54.874Z,8.44
2018-03-31T06:55:54.846Z,8.44
2018-03-31T06:56:54.806Z,8.40
2018-03-31T06:57:54.792Z,8.49
2018-03-31T06:58:54.761Z,8.52
2018-03-31T06:59:54.728Z,8.58
2018-03-31T07:00:54.710Z,8.54
2018-03-31T07:01:54.679Z,8.57
2018-03-31T07:02:54.647Z,8.58
2018-03-31T07:03:54.632Z,8.60
2018-03-31T07:04:54.594Z,8.58
2018-03-31T07:05:54.565Z,8.58
2018-03-31T07:06:54.541Z,8.61
2018-03-31T07:07:54.515Z,8.58
2018-03-31T07:08:54.485Z,8.58
2018-03-31T07:09:54.461Z,8.57
2018-03-31T07:10:54.433Z,8.62
2018-03-31T07:11:54.403Z,8.61
2018-03-31T07:12:54.382Z,8.61
2018-03-31T07:13:54.352Z,8.62
2018-03-31T07:14:54.330Z,8.72
2018-03-31T07:15:54.302Z,8.64
2018-03-31T07:16:54.277Z,8.69
2018-03-31T07:17:54.249Z,8.68
2018-03-31T07:18:54.210Z,8.69
2018-03-31T07:19:54.187Z,8.71
2018-03-31T07:20:54.167Z,8.71
2018-03-31T07:21:54.137Z,8.71
2018-03-31T07:22:54.111Z,8.69
2018-03-31T07:23:54.087Z,8.71
2018-03-31T07:24:54.052Z,8.74
2018-03-31T07:25:54.027Z,8.76
2018-03-31T07:26:54.020Z,8.77
2018-03-31T07:27:53.983Z,8.74
2018-03-31T07:28:53.953Z,8.85
2018-03-31T07:29:53.927Z,8.85
2018-03-31T07:30:53.893Z,8.83
2018-03-31T07:31:53.906Z,8.86
2018-03-31T07:32:53.975Z,8.86
2018-03-31T07:33:53.810Z,8.86
2018-03-31T07:34:53.799Z,8.89
2018-03-31T07:35:53.760Z,8.85
2018-03-31T07:36:53.820Z,8.92
2018-03-31T07:37:53.710Z,8.85
2018-03-31T07:38:53.682Z,8.94
2018-03-31T07:39:53.658Z,9.01
2018-03-31T07:40:53.625Z,8.95
2018-03-31T07:41:53.596Z,8.97
2018-03-31T07:42:53.577Z,8.98
2018-03-31T07:43:53.541Z,9.04
2018-03-31T07:44:53.522Z,9.00
2018-03-31T07:45:53.497Z,9.03
2018-03-31T07:46:53.471Z,9.08
2018-03-31T07:47:53.442Z,9.04
2018-03-31T07:48:53.410Z,9.11
2018-03-31T07:49:53.382Z,9.14
2018-03-31T07:50:53.361Z,9.00
2018-03-31T07:51:53.330Z,9.00
2018-03-31T07:52:53.317Z,9.09
2018-03-31T07:53:53.294Z,9.11
2018-03-31T07:54:53.251Z,9.05
2018-03-31T07:55:53.228Z,9.03
2018-03-31T07:56:53.208Z,9.11
2018-03-31T07:57:53.177Z,9.17
2018-03-31T07:58:53.143Z,9.20
2018-03-31T07:59:53.156Z,9.21
2018-03-31T08:00:53.113Z,9.24
2018-03-31T08:01:53.070Z,9.23
2018-03-31T08:02:53.043Z,9.27
2018-03-31T08:03:53.019Z,9.29
2018-03-31T08:04:52.990Z,9.37
2018-03-31T08:05:52.966Z,9.35
2018-03-31T08:06:52.952Z,9.39
2018-03-31T08:07:52.910Z,9.47
2018-03-31T08:08:52.883Z,9.55
2018-03-31T08:09:52.870Z,9.50
2018-03-31T08:10:52.835Z,9.55
2018-03-31T08:11:52.806Z,9.60
2018-03-31T08:12:52.791Z,9.70
2018-03-31T08:13:52.750Z,9.71
2018-03-31T08:14:52.734Z,9.55
2018-03-31T08:15:52.698Z,9.55
2018-03-31T08:16:53.848Z,9.55
2018-03-31T08:17:52.651Z,9.59
2018-03-31T08:18:52.627Z,9.59
2018-03-31T08:19:52.607Z,9.60
2018-03-31T08:20:54.560Z,9.59
2018-03-31T08:21:52.550Z,9.52
2018-03-31T08:22:52.517Z,9.44
2018-03-31T08:23:52.488Z,9.35
2018-03-31T08:24:52.471Z,9.32
2018-03-31T08:25:52.439Z,9.23
2018-03-31T08:26:52.417Z,9.29
2018-03-31T08:27:52.396Z,9.38
2018-03-31T08:28:52.369Z,9.53
2018-03-31T08:29:52.345Z,9.37
2018-03-31T08:30:52.317Z,9.55
2018-03-31T08:31:52.288Z,9.53
2018-03-31T08:32:52.262Z,9.57
2018-03-31T08:33:52.237Z,9.56
2018-03-31T08:34:52.206Z,9.71
2018-03-31T08:35:52.183Z,9.64
2018-03-31T08:36:52.335Z,9.62
2018-03-31T08:37:52.132Z,9.52
2018-03-31T08:38:52.112Z,9.62
2018-03-31T08:39:52.081Z,9.67
2018-03-31T08:40:52.062Z,9.70
2018-03-31T08:41:52.028Z,9.67
2018-03-31T08:42:52.007Z,9.75
2018-03-31T08:43:51.986Z,9.71
2018-03-31T08:44:51.952Z,9.75
2018-03-31T08:45:51.928Z,9.75
2018-03-31T08:46:51.895Z,9.72
2018-03-31T08:47:51.868Z,9.71
2018-03-31T08:48:51.850Z,9.70
2018-03-31T08:49:51.828Z,9.72
2018-03-31T08:50:51.796Z,9.80
2018-03-31T08:51:51.774Z,9.85
2018-03-31T08:52:51.740Z,9.85
2018-03-31T08:53:51.747Z,9.95
2018-03-31T08:54:52.040Z,9.92
2018-03-31T08:55:51.671Z,9.80
2018-03-31T08:56:51.637Z,9.82
2018-03-31T08:57:51.619Z,9.81
2018-03-31T08:58:51.584Z,9.88
2018-03-31T08:59:51.557Z,9.77
2018-03-31T09:00:51.540Z,9.88
2018-03-31T09:01:52.960Z,9.90
2018-03-31T09:02:51.490Z,9.92
2018-03-31T09:03:51.504Z,9.85
2018-03-31T09:04:51.437Z,9.93
2018-03-31T09:05:51.407Z,9.98
2018-03-31T09:06:51.384Z,10.07
2018-03-31T09:07:51.352Z,10.08
2018-03-31T09:08:51.329Z,10.07
2018-03-31T09:09:51.307Z,10.08
2018-03-31T09:10:51.277Z,10.08
2018-03-31T09:11:51.268Z,10.11
2018-03-31T09:12:51.225Z,10.18
2018-03-31T09:13:51.198Z,10.23
2018-03-31T09:14:51.178Z,10.28
2018-03-31T09:15:51.155Z,10.26
2018-03-31T09:16:51.123Z,10.35
2018-03-31T09:17:51.102Z,10.35
2018-03-31T09:18:51.370Z,10.46
2018-03-31T09:19:51.050Z,10.44
2018-03-31T09:20:51.022Z,10.58
2018-03-31T09:21:50.994Z,10.38
2018-03-31T09:22:50.968Z,10.44
2018-03-31T09:23:50.940Z,10.58
2018-03-31T09:24:50.937Z,10.52
2018-03-31T09:25:50.903Z,10.41
2018-03-31T09:26:50.923Z,10.42
2018-03-31T09:27:51.025Z,10.35
2018-03-31T09:28:51.795Z,10.35
2018-03-31T09:29:50.788Z,10.28
2018-03-31T09:30:50.767Z,10.11
2018-03-31T09:31:53.829Z,10.25
2018-03-31T09:32:50.720Z,10.28
2018-03-31T09:33:50.733Z,10.29
2018-03-31T09:34:50.744Z,10.33
2018-03-31T09:35:50.640Z,10.35
2018-03-31T09:36:50.614Z,10.35
2018-03-31T09:37:50.584Z,10.28
2018-03-31T09:38:50.558Z,10.29
2018-03-31T09:39:50.540Z,10.35
2018-03-31T09:40:50.510Z,10.35
2018-03-31T09:41:51.365Z,10.42
2018-03-31T09:42:50.458Z,10.33
2018-03-31T09:43:50.433Z,10.36
2018-03-31T09:44:50.407Z,10.42
2018-03-31T09:45:50.381Z,10.59
2018-03-31T09:46:50.402Z,10.66
2018-03-31T09:47:50.330Z,10.66
2018-03-31T09:48:50.307Z,10.73
2018-03-31T09:49:50.288Z,10.72
2018-03-31T09:50:50.250Z,10.79
2018-03-31T09:51:50.227Z,10.73
2018-03-31T09:52:50.206Z,10.77
2018-03-31T09:53:50.180Z,10.75
2018-03-31T09:54:50.163Z,10.67
2018-03-31T09:55:50.123Z,10.69
2018-03-31T09:56:50.117Z,10.73
2018-03-31T09:57:50.086Z,10.85
2018-03-31T09:58:50.056Z,10.80
2018-03-31T09:59:50.026Z,10.92
2018-03-31T10:00:50.005Z,10.98
2018-03-31T10:01:49.983Z,10.91
2018-03-31T10:02:49.952Z,10.87
2018-03-31T10:03:49.931Z,10.88
2018-03-31T10:04:49.951Z,10.85
2018-03-31T10:05:49.873Z,10.85
2018-03-31T10:06:49.856Z,10.87
2018-03-31T10:07:49.841Z,10.84
2018-03-31T10:08:49.805Z,10.80
2018-03-31T10:09:49.772Z,10.90
2018-03-31T10:10:49.749Z,10.87
2018-03-31T10:11:49.730Z,10.87
2018-03-31T10:12:49.707Z,10.80
2018-03-31T10:13:49.682Z,10.87
2018-03-31T10:14:49.649Z,10.85
2018-03-31T10:15:49.624Z,10.98
2018-03-31T10:16:49.603Z,10.95
2018-03-31T10:17:49.580Z,11.02
2018-03-31T10:18:49.546Z,10.87
2018-03-31T10:19:49.537Z,10.91
2018-03-31T10:20:49.495Z,10.94
2018-03-31T10:21:49.473Z,10.90
2018-03-31T10:22:49.505Z,10.92
2018-03-31T10:23:49.427Z,10.98
2018-03-31T10:24:49.410Z,10.92
2018-03-31T10:25:49.372Z,11.00
2018-03-31T10:26:49.364Z,10.97
2018-03-31T10:27:49.319Z,11.00
2018-03-31T10:28:49.303Z,11.06
2018-03-31T10:29:49.268Z,11.08
2018-03-31T10:30:49.250Z,11.03
2018-03-31T10:31:49.293Z,11.08
2018-03-31T10:32:49.194Z,11.16
2018-03-31T10:33:49.177Z,11.31
2018-03-31T10:34:49.153Z,11.39
2018-03-31T10:35:49.126Z,11.49
2018-03-31T10:36:49.100Z,11.59
2018-03-31T10:37:49.117Z,11.56
2018-03-31T10:38:49.070Z,11.57
2018-03-31T10:39:49.022Z,11.59
2018-03-31T10:40:49.022Z,11.56
2018-03-31T10:41:48.982Z,11.56
2018-03-31T10:42:48.941Z,11.53
2018-03-31T10:43:48.961Z,11.56
2018-03-31T10:44:48.893Z,11.59
2018-03-31T10:45:48.866Z,11.52
2018-03-31T10:46:48.845Z,11.59
2018-03-31T10:47:48.814Z,11.60
2018-03-31T10:48:48.800Z,11.56
2018-03-31T10:49:48.770Z,11.53
2018-03-31T10:50:48.750Z,11.57
2018-03-31T10:51:48.724Z,11.67
2018-03-31T10:52:48.717Z,11.60
2018-03-31T10:53:48.803Z,11.57
2018-03-31T10:54:48.647Z,11.71
2018-03-31T10:55:48.617Z,11.70
2018-03-31T10:56:48.594Z,11.76
2018-03-31T10:57:48.567Z,11.66
2018-03-31T10:58:48.538Z,11.59
2018-03-31T10:59:48.522Z,11.57
2018-03-31T11:00:48.493Z,11.45
2018-03-31T11:01:48.508Z,11.51
2018-03-31T11:02:48.445Z,11.42
2018-03-31T11:03:48.414Z,11.48
2018-03-31T11:04:48.399Z,11.59
2018-03-31T11:05:48.365Z,11.63
2018-03-31T11:06:48.343Z,11.61
2018-03-31T11:07:48.318Z,11.63
2018-03-31T11:08:48.297Z,11.70
2018-03-31T11:09:48.272Z,11.78
2018-03-31T11:10:49.140Z,11.76
2018-03-31T11:11:48.221Z,11.78
2018-03-31T11:12:48.210Z,11.78
2018-03-31T11:13:48.173Z,11.79
2018-03-31T11:14:48.147Z,11.78
2018-03-31T11:15:48.135Z,11.91
2018-03-31T11:16:48.095Z,12.00
2018-03-31T11:17:48.067Z,11.98
2018-03-31T11:18:48.063Z,11.94
2018-03-31T11:19:48.037Z,11.91
2018-03-31T11:20:47.998Z,11.82
2018-03-31T11:21:47.971Z,11.98
2018-03-31T11:22:47.958Z,12.10
2018-03-31T11:23:47.917Z,12.19
2018-03-31T11:24:47.895Z,12.26
2018-03-31T11:25:47.876Z,12.31
2018-03-31T11:26:47.843Z,12.31
2018-03-31T11:27:47.821Z,12.38
2018-03-31T11:28:47.816Z,12.47
2018-03-31T11:29:47.777Z,12.51
2018-03-31T11:30:47.742Z,12.51
2018-03-31T11:31:47.729Z,12.59
2018-03-31T11:32:47.696Z,12.43
2018-03-31T11:33:47.684Z,12.43
2018-03-31T11:34:47.653Z,12.44
2018-03-31T11:35:47.624Z,12.47
2018-03-31T11:36:47.600Z,12.41
2018-03-31T11:37:47.582Z,12.28
2018-03-31T11:38:47.550Z,12.20
2018-03-31T11:39:47.525Z,12.26
2018-03-31T11:40:47.513Z,12.23
2018-03-31T11:41:47.481Z,12.22
2018-03-31T11:42:47.452Z,12.20
2018-03-31T11:43:47.437Z,12.23
2018-03-31T11:44:47.404Z,12.10
2018-03-31T11:45:47.439Z,12.11
2018-03-31T11:46:47.358Z,12.07
2018-03-31T11:47:47.331Z,12.01
2018-03-31T11:48:47.305Z,12.00
2018-03-31T11:49:47.283Z,12.11
2018-03-31T11:50:47.257Z,12.20
2018-03-31T11:51:47.230Z,12.19
2018-03-31T11:52:47.209Z,12.18
2018-03-31T11:53:47.190Z,12.33
2018-03-31T11:54:47.172Z,12.43
2018-03-31T11:55:47.136Z,12.34
2018-03-31T11:56:47.115Z,12.34
2018-03-31T11:57:47.090Z,12.26
2018-03-31T11:58:47.064Z,12.31
2018-03-31T11:59:47.042Z,12.15
2018-03-31T12:00:47.013Z,12.08
2018-03-31T12:01:46.994Z,12.10
2018-03-31T12:02:46.971Z,12.00
2018-03-31T12:03:46.952Z,12.05
2018-03-31T12:04:46.921Z,12.18
2018-03-31T12:05:46.910Z,12.16
2018-03-31T12:06:46.909Z,12.20
2018-03-31T12:07:46.842Z,12.34
2018-03-31T12:08:46.828Z,12.41
2018-03-31T12:09:46.872Z,12.44
2018-03-31T12:10:46.773Z,12.41
2018-03-31T12:11:46.757Z,12.23
2018-03-31T12:12:46.726Z,12.33
2018-03-31T12:13:46.702Z,12.36
2018-03-31T12:14:46.674Z,12.26
2018-03-31T12:15:46.654Z,12.25
2018-03-31T12:16:46.634Z,12.34
2018-03-31T12:17:46.616Z,12.38
2018-03-31T12:18:46.572Z,12.43
2018-03-31T12:19:46.565Z,12.36
2018-03-31T12:20:46.533Z,12.43
2018-03-31T12:21:46.498Z,12.41
2018-03-31T12:22:46.479Z,12.44
2018-03-31T12:23:46.450Z,12.43
2018-03-31T12:24:46.432Z,12.48
2018-03-31T12:25:46.414Z,12.56
2018-03-31T12:26:46.384Z,12.62
2018-03-31T12:27:46.366Z,12.69
2018-03-31T12:28:46.393Z,12.77
2018-03-31T12:29:46.345Z,12.81
2018-03-31T12:30:46.301Z,12.69
2018-03-31T12:31:46.253Z,12.77
2018-03-31T12:32:46.236Z,12.69
2018-03-31T12:33:46.210Z,12.73
2018-03-31T12:34:46.199Z,12.71
2018-03-31T12:35:46.179Z,12.70
2018-03-31T12:36:46.137Z,12.77
2018-03-31T12:37:46.111Z,12.76
2018-03-31T12:38:46.092Z,12.66
2018-03-31T12:39:46.068Z,12.62
2018-03-31T12:40:46.035Z,12.61
2018-03-31T12:41:46.016Z,12.76
2018-03-31T12:42:45.981Z,12.74
2018-03-31T12:43:45.964Z,12.91
2018-03-31T12:44:45.940Z,13.02
2018-03-31T12:45:45.917Z,13.03
2018-03-31T12:46:45.895Z,12.96
2018-03-31T12:47:45.891Z,12.91
2018-03-31T12:48:45.842Z,12.70
2018-03-31T12:49:45.848Z,12.73
2018-03-31T12:50:45.794Z,12.80
2018-03-31T12:51:45.820Z,12.71
2018-03-31T12:52:45.741Z,12.92
2018-03-31T12:53:45.728Z,12.99
2018-03-31T12:54:45.710Z,13.02
2018-03-31T12:55:45.675Z,13.06
2018-03-31T12:56:45.695Z,13.11
2018-03-31T12:57:45.632Z,13.24
2018-03-31T12:58:45.601Z,13.27
2018-03-31T12:59:45.585Z,13.27
2018-03-31T13:00:45.555Z,13.35
2018-03-31T13:01:45.533Z,13.42
2018-03-31T13:02:45.500Z,13.48
2018-03-31T13:03:45.718Z,13.47
2018-03-31T13:04:45.455Z,13.45
2018-03-31T13:05:45.443Z,13.29
2018-03-31T13:06:45.407Z,13.39
2018-03-31T13:07:45.412Z,13.44
2018-03-31T13:08:45.382Z,13.51
2018-03-31T13:09:45.415Z,13.50
2018-03-31T13:10:45.317Z,13.54